createdAt,value
2019-02-24T00:01:25.792Z,4.16
2019-02-24T00:04:11.701Z,4.23
2019-02-24T00:06:57.669Z,4.21
2019-02-24T00:09:44.076Z,4.10
2019-02-24T00:12:30.099Z,4.08
2019-02-24T00:15:15.858Z,4.04
2019-02-24T00:18:02.116Z,4.06
2019-02-24T00:20:47.836Z,4.14
2019-02-24T00:23:33.789Z,4.15
2019-02-24T00:26:20.068Z,4.11
2019-02-24T00:29:06.745Z,4.05
2019-02-24T00:31:52.815Z,3.93
2019-02-24T00:34:40.000Z,3.85
2019-02-24T00:37:26.010Z,3.79
2019-02-24T00:40:12.656Z,3.84
2019-02-24T00:42:58.733Z,3.88
2019-02-24T00:45:44.184Z,3.88
2019-02-24T00:48:30.632Z,3.85
2019-02-24T00:51:16.357Z,3.75
2019-02-24T00:54:02.473Z,3.75
2019-02-24T00:56:48.449Z,3.76
2019-02-24T00:59:34.294Z,3.70
2019-02-24T01:02:22.600Z,3.64
2019-02-24T01:05:08.834Z,3.74
2019-02-24T01:07:54.927Z,3.75
2019-02-24T01:10:40.795Z,3.62
2019-02-24T01:13:27.414Z,3.46
2019-02-24T01:16:13.529Z,3.39
2019-02-24T01:18:59.564Z,3.43
2019-02-24T01:21:46.174Z,3.41
2019-02-24T01:24:32.276Z,3.48
2019-02-24T01:27:19.077Z,3.49
2019-02-24T01:30:05.193Z,3.52
2019-02-24T01:32:50.676Z,3.46
2019-02-24T01:35:37.200Z,3.50
2019-02-24T01:38:23.017Z,3.40
2019-02-24T01:41:09.689Z,3.35
2019-02-24T01:43:56.399Z,3.24
2019-02-24T01:46:42.527Z,3.16
2019-02-24T01:49:28.465Z,3.21
2019-02-24T01:52:14.667Z,3.28
2019-02-24T01:55:00.777Z,3.32
2019-02-24T01:57:46.591Z,3.27
2019-02-24T02:00:33.109Z,3.29
2019-02-24T02:03:18.984Z,3.31
2019-02-24T02:06:05.259Z,3.36
2019-02-24T02:08:51.504Z,3.63
2019-02-24T02:11:37.657Z,3.57
2019-02-24T02:14:23.924Z,3.09
2019-02-24T02:17:10.255Z,2.68
2019-02-24T02:19:56.087Z,2.68
2019-02-24T02:22:41.938Z,2.72
2019-02-24T02:25:28.249Z,2.72
2019-02-24T02:28:14.262Z,2.62
2019-02-24T02:31:00.061Z,2.92
2019-02-24T02:33:46.264Z,3.03
2019-02-24T02:36:32.029Z,3.03
2019-02-24T02:39:18.038Z,2.82
2019-02-24T02:42:04.445Z,2.65
2019-02-24T02:44:50.353Z,2.65
2019-02-24T02:47:36.165Z,2.61
2019-02-24T02:50:23.018Z,2.53
2019-02-24T02:53:08.767Z,2.54
2019-02-24T02:55:54.731Z,2.55
2019-02-24T02:58:41.105Z,2.55
2019-02-24T03:01:27.121Z,2.55
2019-02-24T03:04:13.237Z,2.57
2019-02-24T03:07:09.028Z,2.40
2019-02-24T03:09:54.657Z,2.40
2019-02-24T03:12:40.455Z,2.21
2019-02-24T03:15:27.035Z,2.14
2019-02-24T03:18:13.338Z,2.21
2019-02-24T03:20:59.200Z,2.28
2019-02-24T03:23:45.385Z,2.32
2019-02-24T03:26:31.072Z,2.25
2019-02-24T03:29:17.165Z,2.25
2019-02-24T03:32:03.482Z,2.41
2019-02-24T03:34:49.361Z,2.41
2019-02-24T03:37:35.250Z,2.32
2019-02-24T03:40:21.790Z,2.32
2019-02-24T03:43:07.857Z,2.33
2019-02-24T03:45:53.431Z,2.42
2019-02-24T03:48:39.753Z,2.51
2019-02-24T03:51:26.717Z,2.56
2019-02-24T03:54:12.549Z,2.67
2019-02-24T03:56:58.838Z,2.67
2019-02-24T03:59:44.794Z,2.39
2019-02-24T04:02:30.938Z,2.33
2019-02-24T04:05:17.154Z,2.26
2019-02-24T04:08:03.026Z,2.26
2019-02-24T04:10:49.169Z,2.38
2019-02-24T04:13:36.748Z,2.38
2019-02-24T04:16:23.058Z,2.41
2019-02-24T04:19:08.974Z,2.30
2019-02-24T04:21:55.141Z,2.25
2019-02-24T04:24:41.073Z,2.13
2019-02-24T04:27:27.093Z,1.98
2019-02-24T04:30:13.396Z,1.98
2019-02-24T04:32:59.234Z,1.98
2019-02-24T04:35:45.253Z,2.01
2019-02-24T04:38:31.778Z,2.10
2019-02-24T04:41:18.011Z,2.46
2019-02-24T04:44:03.637Z,2.28
2019-02-24T04:46:49.915Z,2.33
2019-02-24T04:49:35.618Z,1.75
2019-02-24T04:52:21.522Z,1.67
2019-02-24T04:55:07.820Z,1.61
2019-02-24T04:57:53.634Z,1.65
2019-02-24T05:00:39.582Z,1.70
2019-02-24T05:03:26.510Z,1.83
2019-02-24T05:06:12.566Z,1.75
2019-02-24T05:08:58.484Z,1.76
2019-02-24T05:11:44.678Z,2.01
2019-02-24T05:14:30.722Z,2.11
2019-02-24T05:17:16.894Z,2.13
2019-02-24T05:20:04.010Z,2.08
2019-02-24T05:22:49.963Z,2.08
2019-02-24T05:25:36.058Z,2.19
2019-02-24T05:28:22.308Z,2.28
2019-02-24T05:31:08.115Z,2.17
2019-02-24T05:33:54.095Z,1.81
2019-02-24T05:36:40.373Z,1.81
2019-02-24T05:39:26.394Z,1.67
2019-02-24T05:42:12.427Z,1.63
2019-02-24T05:44:58.871Z,1.52
2019-02-24T05:47:44.938Z,1.49
2019-02-24T05:50:30.701Z,1.50
2019-02-24T05:53:17.081Z,1.48
2019-02-24T05:56:03.317Z,1.46
2019-02-24T05:58:49.247Z,1.50
2019-02-24T06:01:35.289Z,1.45
2019-02-24T06:04:21.691Z,1.55
2019-02-24T06:07:07.458Z,1.59
2019-02-24T06:09:54.090Z,1.43
2019-02-24T06:12:40.001Z,1.39
2019-02-24T06:15:25.474Z,1.37
2019-02-24T06:18:11.971Z,1.51
2019-02-24T06:20:59.366Z,1.75
2019-02-24T06:23:45.195Z,1.76
2019-02-24T06:26:32.081Z,1.73
2019-02-24T06:29:17.999Z,1.80
2019-02-24T06:32:14.664Z,1.92
2019-02-24T06:35:00.595Z,1.91
2019-02-24T06:37:46.586Z,1.83
2019-02-24T06:40:32.926Z,1.83
2019-02-24T06:43:18.984Z,1.83
2019-02-24T06:46:04.798Z,1.77
2019-02-24T06:48:51.037Z,1.77
2019-02-24T06:51:37.067Z,1.77
2019-02-24T06:54:22.945Z,1.80
2019-02-24T06:57:09.350Z,2.08
2019-02-24T06:59:54.901Z,2.55
2019-02-24T07:02:40.739Z,3.20
2019-02-24T07:05:27.409Z,3.45
2019-02-24T07:08:13.071Z,3.72
2019-02-24T07:10:58.956Z,3.72
2019-02-24T07:13:45.090Z,4.08
2019-02-24T07:16:31.226Z,4.37
2019-02-24T07:19:17.451Z,4.94
2019-02-24T07:22:03.918Z,4.92
2019-02-24T07:24:50.115Z,4.82
2019-02-24T07:27:36.146Z,5.39
2019-02-24T07:30:23.709Z,5.39
2019-02-24T07:33:09.898Z,5.85
2019-02-24T07:35:55.888Z,5.49
2019-02-24T07:38:49.011Z,6.08
2019-02-24T07:41:40.899Z,6.32
2019-02-24T07:44:27.051Z,6.75
2019-02-24T07:47:13.605Z,6.95
2019-02-24T07:49:59.631Z,7.09
2019-02-24T07:52:45.666Z,7.70
2019-02-24T07:55:31.940Z,9.09
2019-02-24T07:58:17.753Z,9.81
2019-02-24T08:01:03.663Z,8.85
2019-02-24T08:03:50.179Z,10.94
2019-02-24T08:06:35.923Z,11.74
2019-02-24T08:09:22.055Z,9.44
2019-02-24T08:12:08.150Z,10.16
2019-02-24T08:14:54.253Z,9.56
2019-02-24T08:17:40.116Z,9.80
2019-02-24T08:20:26.918Z,10.23
2019-02-24T08:23:12.760Z,10.20
2019-02-24T08:25:58.536Z,10.12
2019-02-24T08:28:44.755Z,9.89
2019-02-24T08:31:30.965Z,9.76
2019-02-24T08:34:16.875Z,11.34
2019-02-24T08:37:05.003Z,10.77
2019-02-24T08:39:50.870Z,10.45
2019-02-24T08:42:36.579Z,12.25
2019-02-24T08:45:22.855Z,10.39
2019-02-24T08:48:09.259Z,10.19
2019-02-24T08:50:55.534Z,10.86
2019-02-24T08:53:41.711Z,10.91
2019-02-24T08:56:27.930Z,10.37
2019-02-24T08:59:13.824Z,11.02
2019-02-24T09:01:59.744Z,11.46
2019-02-24T09:04:45.681Z,10.54
2019-02-24T09:07:31.850Z,10.77
2019-02-24T09:10:17.602Z,11.08
2019-02-24T09:13:03.536Z,10.72
2019-02-24T09:15:50.226Z,11.04
2019-02-24T09:18:35.862Z,11.69
2019-02-24T09:21:21.966Z,10.25
2019-02-24T09:24:08.212Z,11.04
2019-02-24T09:26:53.881Z,11.54
2019-02-24T09:29:39.359Z,11.57
2019-02-24T09:32:25.684Z,11.01
2019-02-24T09:35:11.728Z,10.99
2019-02-24T09:37:57.686Z,10.66
2019-02-24T09:40:44.918Z,11.96
2019-02-24T09:43:30.640Z,13.70
2019-02-24T09:46:17.364Z,14.37
2019-02-24T09:49:03.313Z,14.96
2019-02-24T09:51:48.874Z,14.71
2019-02-24T09:54:35.011Z,16.08
2019-02-24T09:57:21.880Z,16.26
2019-02-24T10:00:08.381Z,16.69
2019-02-24T10:02:54.583Z,17.18
2019-02-24T10:05:40.396Z,16.99
2019-02-24T10:08:26.250Z,17.50
2019-02-24T10:11:13.334Z,15.46
2019-02-24T10:13:59.344Z,15.33
2019-02-24T10:16:45.611Z,16.00
2019-02-24T10:19:33.914Z,15.67
2019-02-24T10:22:20.128Z,17.57
2019-02-24T10:25:06.545Z,16.36
2019-02-24T10:27:52.788Z,15.87
2019-02-24T10:30:38.765Z,15.02
2019-02-24T10:33:24.559Z,16.54
2019-02-24T10:36:13.321Z,16.22
2019-02-24T10:38:59.888Z,16.86
2019-02-24T10:41:45.700Z,16.33
2019-02-24T10:44:33.068Z,18.39
2019-02-24T10:47:21.216Z,18.76
2019-02-24T10:50:11.696Z,17.17
2019-02-24T10:52:59.224Z,17.19
2019-02-24T10:55:45.533Z,16.44
2019-02-24T10:58:34.647Z,17.10
2019-02-24T11:01:19.467Z,17.02
2019-02-24T11:04:05.983Z,16.60
2019-02-24T11:06:52.353Z,17.25
2019-02-24T11:09:38.357Z,16.97
2019-02-24T11:12:24.296Z,16.25
2019-02-24T11:15:11.445Z,17.26
2019-02-24T11:17:57.376Z,18.48
2019-02-24T11:20:43.267Z,17.60
2019-02-24T11:23:29.905Z,18.52
2019-02-24T11:26:15.905Z,19.10
2019-02-24T11:29:01.777Z,18.62
2019-02-24T11:31:47.869Z,16.77
2019-02-24T11:34:34.027Z,16.45
2019-02-24T11:37:19.557Z,19.34
2019-02-24T11:40:06.900Z,18.37
2019-02-24T11:42:56.280Z,19.79
2019-02-24T11:45:43.675Z,19.52
2019-02-24T11:48:29.728Z,19.38
2019-02-24T11:51:15.581Z,20.10
2019-02-24T11:54:01.587Z,17.76
2019-02-24T11:56:47.776Z,18.41
2019-02-24T11:59:34.018Z,18.77
2019-02-24T12:02:23.120Z,19.90
2019-02-24T12:05:08.831Z,18.09
2019-02-24T12:07:54.989Z,19.45
2019-02-24T12:10:40.901Z,18.16
2019-02-24T12:13:26.806Z,19.92
2019-02-24T12:16:13.116Z,19.17
2019-02-24T12:18:59.192Z,18.03
2019-02-24T12:21:45.201Z,17.56
2019-02-24T12:24:31.085Z,18.00
2019-02-24T12:27:17.409Z,16.78
2019-02-24T12:30:05.000Z,18.54
2019-02-24T12:32:52.246Z,17.93
2019-02-24T12:35:38.847Z,18.58
2019-02-24T12:38:24.846Z,17.65
2019-02-24T12:41:10.895Z,19.10
2019-02-24T12:43:57.075Z,18.47
2019-02-24T12:46:43.332Z,18.64
2019-02-24T12:49:29.207Z,18.18
2019-02-24T12:52:15.487Z,18.19
2019-02-24T12:55:01.948Z,19.19
2019-02-24T12:57:47.849Z,18.71
2019-02-24T13:00:34.359Z,19.33
2019-02-24T13:03:23.953Z,18.38
2019-02-24T13:06:08.414Z,18.29
2019-02-24T13:08:57.486Z,19.18
2019-02-24T13:11:45.647Z,19.62
2019-02-24T13:14:31.324Z,20.21
2019-02-24T13:17:18.122Z,20.76
2019-02-24T13:20:04.364Z,19.88
2019-02-24T13:22:50.425Z,20.14
2019-02-24T13:25:36.751Z,19.93
2019-02-24T13:28:33.288Z,20.00
2019-02-24T13:31:20.003Z,20.20
2019-02-24T13:34:08.531Z,20.45
2019-02-24T13:36:57.386Z,17.43
2019-02-24T13:39:43.759Z,19.90
2019-02-24T13:42:29.848Z,19.12
2019-02-24T13:45:15.964Z,19.44
2019-02-24T13:48:02.800Z,19.90
2019-02-24T13:50:48.836Z,20.08
2019-02-24T13:53:38.139Z,20.03
2019-02-24T13:56:29.860Z,20.20
2019-02-24T13:59:16.276Z,20.34
2019-02-24T14:02:02.164Z,20.25
2019-02-24T14:04:48.537Z,20.45
2019-02-24T14:07:34.133Z,19.14
2019-02-24T14:10:20.672Z,20.53
2019-02-24T14:13:09.261Z,20.89
2019-02-24T14:15:55.548Z,20.16
2019-02-24T14:18:41.580Z,20.29
2019-02-24T14:21:31.975Z,20.42
2019-02-24T14:24:17.653Z,19.75
2019-02-24T14:27:04.573Z,20.53
2019-02-24T14:29:50.740Z,19.86
2019-02-24T14:32:36.796Z,20.38
2019-02-24T14:35:24.428Z,20.60
2019-02-24T14:38:10.810Z,20.18
2019-02-24T14:40:56.804Z,21.18
2019-02-24T14:43:44.088Z,21.01
2019-02-24T14:46:31.184Z,20.92
2019-02-24T14:49:17.232Z,22.06
2019-02-24T14:52:03.381Z,21.39
2019-02-24T14:54:49.698Z,21.15
2019-02-24T14:57:38.003Z,20.59
2019-02-24T15:00:23.795Z,18.47
2019-02-24T15:03:10.331Z,18.02
2019-02-24T15:05:55.904Z,17.08
2019-02-24T15:08:41.908Z,17.62
2019-02-24T15:11:28.325Z,16.84
2019-02-24T15:14:14.156Z,17.00
2019-02-24T15:17:00.152Z,16.28
2019-02-24T15:19:46.983Z,15.74
2019-02-24T15:22:33.014Z,15.75
2019-02-24T15:25:19.158Z,15.51
2019-02-24T15:28:05.585Z,15.28
2019-02-24T15:30:51.470Z,14.99
2019-02-24T15:33:37.320Z,15.02
2019-02-24T15:36:23.474Z,15.22
2019-02-24T15:39:09.061Z,15.26
2019-02-24T15:41:55.140Z,15.09
2019-02-24T15:44:41.365Z,14.63
2019-02-24T15:47:27.356Z,14.69
2019-02-24T15:50:13.356Z,14.78
2019-02-24T15:52:59.721Z,14.97
2019-02-24T15:55:45.868Z,15.14
2019-02-24T15:58:31.801Z,14.92
2019-02-24T16:01:18.121Z,14.76
2019-02-24T16:04:03.833Z,14.83
2019-02-24T16:06:49.701Z,14.61
2019-02-24T16:09:35.977Z,14.56
2019-02-24T16:12:22.809Z,14.51
2019-02-24T16:15:11.176Z,14.65
2019-02-24T16:17:57.119Z,14.53
2019-02-24T16:20:43.921Z,14.57
2019-02-24T16:23:30.339Z,14.45
2019-02-24T16:26:24.002Z,14.44
2019-02-24T16:29:26.854Z,14.11
2019-02-24T16:32:13.953Z,14.11
2019-02-24T16:34:59.984Z,13.96
2019-02-24T16:37:46.205Z,13.87
2019-02-24T16:40:32.750Z,13.73
2019-02-24T16:43:18.950Z,13.53
2019-02-24T16:46:07.409Z,13.23
2019-02-24T16:48:53.489Z,13.04
2019-02-24T16:51:39.433Z,12.98
2019-02-24T16:54:28.739Z,12.98
2019-02-24T16:57:14.510Z,12.38
2019-02-24T17:00:00.508Z,12.27
2019-02-24T17:02:49.213Z,11.98
2019-02-24T17:05:35.249Z,12.25
2019-02-24T17:08:22.025Z,11.84
2019-02-24T17:11:10.760Z,11.49
2019-02-24T17:13:56.947Z,11.46
2019-02-24T17:16:43.245Z,11.42
2019-02-24T17:19:30.256Z,11.47
2019-02-24T17:22:16.787Z,11.34
2019-02-24T17:25:03.847Z,11.15
2019-02-24T17:27:50.565Z,10.51
2019-02-24T17:30:37.642Z,10.32
2019-02-24T17:33:29.948Z,10.23
2019-02-24T17:36:11.730Z,10.39
2019-02-24T17:38:57.581Z,10.51
2019-02-24T17:41:43.958Z,10.44
2019-02-24T17:44:29.771Z,10.48
2019-02-24T17:47:15.660Z,10.23
2019-02-24T17:50:01.658Z,9.74
2019-02-24T17:52:47.233Z,9.82
2019-02-24T17:55:35.348Z,9.72
2019-02-24T17:58:21.517Z,9.83
2019-02-24T18:01:07.338Z,9.56
2019-02-24T18:03:54.603Z,9.85
2019-02-24T18:06:41.137Z,9.75
2019-02-24T18:09:27.454Z,9.35
2019-02-24T18:12:13.702Z,9.37
2019-02-24T18:15:03.577Z,9.35
2019-02-24T18:17:50.810Z,9.36
2019-02-24T18:20:37.627Z,9.02
2019-02-24T18:23:25.139Z,9.22
2019-02-24T18:26:11.586Z,9.44
2019-02-24T18:28:58.512Z,8.83
2019-02-24T18:31:46.556Z,8.82
2019-02-24T18:34:33.382Z,8.95
2019-02-24T18:37:20.289Z,8.62
2019-02-24T18:40:07.258Z,8.35
2019-02-24T18:43:00.342Z,8.19
2019-02-24T18:45:42.925Z,8.29
2019-02-24T18:48:32.442Z,8.48
2019-02-24T18:51:18.569Z,8.50
2019-02-24T18:54:04.843Z,8.51
2019-02-24T18:56:52.298Z,8.46
2019-02-24T18:59:38.622Z,8.28
2019-02-24T19:02:26.045Z,8.12
2019-02-24T19:05:12.252Z,8.22
2019-02-24T19:07:58.720Z,8.62
2019-02-24T19:10:45.199Z,8.74
2019-02-24T19:13:32.881Z,8.78
2019-02-24T19:16:18.965Z,8.95
2019-02-24T19:19:05.668Z,8.90
2019-02-24T19:21:53.436Z,8.98
2019-02-24T19:24:39.523Z,9.05
2019-02-24T19:27:25.706Z,9.04
2019-02-24T19:30:13.345Z,9.01
2019-02-24T19:33:00.586Z,8.95
2019-02-24T19:35:46.867Z,8.77
2019-02-24T19:38:33.344Z,9.07
2019-02-24T19:41:19.688Z,9.35
2019-02-24T19:44:05.864Z,9.16
2019-02-24T19:46:52.456Z,9.29
2019-02-24T19:49:38.012Z,9.49
2019-02-24T19:52:25.303Z,9.44
2019-02-24T19:55:11.735Z,9.51
2019-02-24T19:58:00.353Z,9.48
2019-02-24T20:00:46.373Z,9.40
2019-02-24T20:03:33.042Z,9.23
2019-02-24T20:06:20.375Z,8.92
2019-02-24T20:09:10.594Z,8.94
2019-02-24T20:11:59.901Z,8.66
2019-02-24T20:14:49.101Z,8.87
2019-02-24T20:17:35.019Z,8.85
2019-02-24T20:20:21.507Z,8.43
2019-02-24T20:23:07.531Z,8.34
2019-02-24T20:25:53.795Z,8.14
2019-02-24T20:28:41.199Z,8.21
2019-02-24T20:31:27.248Z,8.09
2019-02-24T20:34:12.990Z,7.85
2019-02-24T20:36:58.994Z,7.94
2019-02-24T20:39:45.054Z,7.76
2019-02-24T20:42:31.418Z,7.40
2019-02-24T20:45:20.053Z,7.46
2019-02-24T20:48:06.168Z,7.34
2019-02-24T20:50:52.069Z,7.39
2019-02-24T20:53:37.962Z,7.58
2019-02-24T20:56:23.790Z,7.64
2019-02-24T20:59:10.486Z,7.38
2019-02-24T21:01:56.397Z,7.31
2019-02-24T21:04:42.070Z,6.81
2019-02-24T21:07:28.315Z,6.96
2019-02-24T21:10:14.133Z,6.91
2019-02-24T21:13:02.516Z,6.99
2019-02-24T21:15:48.458Z,6.76
2019-02-24T21:18:34.143Z,6.92
2019-02-24T21:21:20.023Z,6.82
2019-02-24T21:24:06.278Z,6.43
2019-02-24T21:26:52.171Z,6.43
2019-02-24T21:29:38.197Z,6.28
2019-02-24T21:32:27.293Z,6.66
2019-02-24T21:35:13.574Z,6.87
2019-02-24T21:37:59.155Z,6.91
2019-02-24T21:40:45.387Z,6.72
2019-02-24T21:43:31.126Z,6.28
2019-02-24T21:46:16.699Z,6.67
2019-02-24T21:49:03.128Z,6.48
2019-02-24T21:51:48.897Z,6.76
2019-02-24T21:54:35.246Z,6.54
2019-02-24T21:57:22.771Z,6.29
2019-02-24T22:00:14.882Z,6.38
2019-02-24T22:03:00.698Z,6.49
2019-02-24T22:05:47.045Z,6.53
2019-02-24T22:08:32.682Z,6.79
2019-02-24T22:11:19.809Z,6.68
2019-02-24T22:14:06.154Z,6.33
2019-02-24T22:16:52.416Z,6.15
2019-02-24T22:19:38.539Z,6.44
2019-02-24T22:22:25.764Z,6.39
2019-02-24T22:25:12.059Z,6.41
2019-02-24T22:27:59.918Z,6.70
2019-02-24T22:30:46.217Z,6.88
2019-02-24T22:33:31.813Z,7.12
2019-02-24T22:36:17.942Z,7.04
2019-02-24T22:39:04.706Z,7.10
2019-02-24T22:41:50.414Z,6.97
2019-02-24T22:44:36.435Z,6.96
2019-02-24T22:47:22.488Z,6.92
2019-02-24T22:50:10.077Z,7.05
2019-02-24T22:52:56.121Z,7.03
2019-02-24T22:55:42.644Z,7.07
2019-02-24T22:58:28.246Z,7.09
2019-02-24T23:01:31.472Z,7.04
2019-02-24T23:04:17.145Z,7.07
2019-02-24T23:07:03.593Z,7.16
2019-02-24T23:09:49.986Z,7.14
2019-02-24T23:12:35.945Z,7.03
2019-02-24T23:15:21.390Z,7.10
2019-02-24T23:18:07.846Z,7.16
2019-02-24T23:20:53.645Z,7.24
2019-02-24T23:23:40.044Z,7.22
2019-02-24T23:26:26.188Z,7.15
2019-02-24T23:29:12.083Z,7.10
2019-02-24T23:31:58.181Z,7.01
2019-02-24T23:34:43.961Z,6.89
2019-02-24T23:37:30.065Z,6.91
2019-02-24T23:40:16.197Z,6.83
2019-02-24T23:43:02.396Z,6.63
2019-02-24T23:45:48.387Z,6.49
2019-02-24T23:48:35.900Z,6.42
2019-02-24T23:51:22.364Z,6.35
2019-02-24T23:54:08.026Z,6.31
2019-02-24T23:56:54.300Z,6.35
2019-02-24T23:59:40.411Z,6.36
